createdAt,value
2019-05-06T00:02:17.095Z,102291.02
2019-05-06T00:05:06.711Z,102290.20
2019-05-06T00:07:56.774Z,102292.45
2019-05-06T00:10:46.460Z,102290.73
2019-05-06T00:13:36.401Z,102290.35
2019-05-06T00:16:26.096Z,102284.62
2019-05-06T00:19:16.272Z,102282.88
2019-05-06T00:22:05.702Z,102282.52
2019-05-06T00:25:01.090Z,102283.47
2019-05-06T00:28:27.317Z,102283.95
2019-05-06T00:31:19.635Z,102273.36
2019-05-06T00:34:10.160Z,102273.84
2019-05-06T00:36:59.008Z,102280.52
2019-05-06T00:40:00.446Z,102277.02
2019-05-06T00:42:57.086Z,102278.37
2019-05-06T00:45:46.347Z,102276.60
2019-05-06T00:48:35.113Z,102271.80
2019-05-06T00:51:26.408Z,102279.36
2019-05-06T00:54:19.772Z,102272.27
2019-05-06T00:57:09.179Z,102266.11
2019-05-06T00:59:59.130Z,102263.04
2019-05-06T01:02:48.894Z,102268.84
2019-05-06T01:05:38.729Z,102267.10
2019-05-06T01:08:28.690Z,102258.25
2019-05-06T01:11:18.165Z,102254.28
2019-05-06T01:14:14.696Z,102260.47
2019-05-06T01:17:04.482Z,102265.81
2019-05-06T01:19:54.119Z,102260.95
2019-05-06T01:22:45.022Z,102260.95
2019-05-06T01:25:34.624Z,102262.28
2019-05-06T01:28:24.566Z,102257.45
2019-05-06T01:31:14.042Z,102252.54
2019-05-06T01:34:04.445Z,102249.45
2019-05-06T01:36:55.773Z,102254.33
2019-05-06T01:39:54.264Z,102250.37
2019-05-06T01:42:50.993Z,102252.12
2019-05-06T01:45:40.528Z,102249.06
2019-05-06T01:48:48.844Z,102251.26
2019-05-06T01:51:40.667Z,102246.43
2019-05-06T01:54:29.791Z,102253.92
2019-05-06T01:57:19.645Z,102242.87
2019-05-06T02:00:11.442Z,102245.53
2019-05-06T02:03:20.437Z,102249.52
2019-05-06T02:06:09.798Z,102245.98
2019-05-06T02:08:58.667Z,102243.80
2019-05-06T02:11:48.323Z,102245.14
2019-05-06T02:14:37.786Z,102240.28
2019-05-06T02:17:27.363Z,102240.77
2019-05-06T02:20:16.355Z,102242.11
2019-05-06T02:23:11.337Z,102248.34
2019-05-06T02:26:02.019Z,102247.05
2019-05-06T02:28:54.485Z,102245.32
2019-05-06T02:31:49.852Z,102248.00
2019-05-06T02:34:47.581Z,102238.71
2019-05-06T02:37:41.503Z,102242.70
2019-05-06T02:40:33.174Z,102242.30
2019-05-06T02:43:23.192Z,102234.77
2019-05-06T02:46:13.485Z,102244.09
2019-05-06T02:49:18.794Z,102242.79
2019-05-06T02:52:08.502Z,102243.27
2019-05-06T02:54:57.293Z,102235.75
2019-05-06T02:57:46.748Z,102230.48
2019-05-06T03:00:54.897Z,102237.61
2019-05-06T03:03:43.922Z,102231.41
2019-05-06T03:06:33.896Z,102229.23
2019-05-06T03:09:23.511Z,102227.95
2019-05-06T03:12:13.552Z,102234.16
2019-05-06T03:15:05.804Z,102227.11
2019-05-06T03:17:57.384Z,102227.16
2019-05-06T03:21:24.465Z,102224.97
2019-05-06T03:24:33.364Z,102224.55
2019-05-06T03:27:23.569Z,102221.09
2019-05-06T03:30:16.461Z,102227.31
2019-05-06T03:36:06.254Z,102226.52
2019-05-06T03:38:53.351Z,102226.56
2019-05-06T03:41:43.725Z,102226.16
2019-05-06T03:44:33.549Z,102223.58
2019-05-06T03:47:43.502Z,102222.29
2019-05-06T03:50:33.634Z,102220.08
2019-05-06T03:53:23.430Z,102215.27
2019-05-06T03:56:16.902Z,102210.42
2019-05-06T03:59:05.280Z,102212.23
2019-05-06T04:01:55.334Z,102209.58
2019-05-06T04:04:47.998Z,102210.53
2019-05-06T04:07:37.049Z,102214.51
2019-05-06T04:10:26.418Z,102203.05
2019-05-06T04:13:15.280Z,102205.72
2019-05-06T04:16:22.831Z,102208.83
2019-05-06T04:19:15.708Z,102211.04
2019-05-06T04:22:24.537Z,102213.25
2019-05-06T04:25:33.992Z,102213.25
2019-05-06T04:28:25.394Z,102207.09
2019-05-06T04:31:14.314Z,102215.05
2019-05-06T04:34:12.769Z,102215.92
2019-05-06T04:36:53.745Z,102215.47
2019-05-06T04:39:43.447Z,102209.75
2019-05-06T04:42:34.481Z,102214.14
2019-05-06T04:45:24.635Z,102212.37
2019-05-06T04:48:14.493Z,102215.00
2019-05-06T04:51:03.730Z,102208.83
2019-05-06T04:53:53.761Z,102213.64
2019-05-06T04:56:44.111Z,102214.07
2019-05-06T04:59:33.966Z,102217.16
2019-05-06T05:02:23.171Z,102212.25
2019-05-06T05:05:13.860Z,102218.44
2019-05-06T05:08:04.120Z,102216.20
2019-05-06T05:11:03.641Z,102213.08
2019-05-06T05:14:02.850Z,102215.69
2019-05-06T05:17:24.134Z,102210.36
2019-05-06T05:20:13.011Z,102202.79
2019-05-06T05:23:02.374Z,102201.87
2019-05-06T05:25:52.199Z,102206.25
2019-05-06T05:28:42.941Z,102207.11
2019-05-06T05:31:33.352Z,102202.63
2019-05-06T05:34:36.962Z,102205.24
2019-05-06T05:37:14.520Z,102202.56
2019-05-06T05:40:04.330Z,102197.19
2019-05-06T05:43:03.586Z,102199.77
2019-05-06T05:45:52.900Z,102197.05
2019-05-06T05:48:52.992Z,102199.19
2019-05-06T05:51:42.685Z,102202.21
2019-05-06T05:54:33.147Z,102204.78
2019-05-06T05:57:23.230Z,102198.95
2019-05-06T06:00:14.738Z,102200.67
2019-05-06T06:03:06.789Z,102197.05
2019-05-06T06:05:54.409Z,102196.09
2019-05-06T06:08:44.005Z,102193.36
2019-05-06T06:11:39.487Z,102193.28
2019-05-06T06:14:56.130Z,102196.77
2019-05-06T06:18:03.414Z,102194.47
2019-05-06T06:21:18.741Z,102187.75
2019-05-06T06:24:06.810Z,102186.80
2019-05-06T06:26:56.622Z,102187.59
2019-05-06T06:29:45.799Z,102187.95
2019-05-06T06:32:35.576Z,102183.42
2019-05-06T06:35:35.286Z,102179.76
2019-05-06T06:38:29.867Z,102179.56
2019-05-06T06:41:19.564Z,102186.45
2019-05-06T06:44:13.332Z,102177.83
2019-05-06T06:47:02.423Z,102170.46
2019-05-06T06:49:53.465Z,102175.06
2019-05-06T06:52:43.499Z,102169.48
2019-05-06T06:55:33.001Z,102178.06
2019-05-06T06:58:32.930Z,102179.02
2019-05-06T07:01:33.142Z,102180.85
2019-05-06T07:04:33.065Z,102178.20
2019-05-06T07:07:39.985Z,102176.91
2019-05-06T07:10:33.107Z,102176.59
2019-05-06T07:13:23.194Z,102175.92
2019-05-06T07:16:12.832Z,102168.14
2019-05-06T07:19:03.089Z,102173.30
2019-05-06T07:21:56.044Z,102178.91
2019-05-06T07:24:45.788Z,102177.83
2019-05-06T07:27:35.088Z,102171.03
2019-05-06T07:30:33.229Z,102172.23
2019-05-06T07:33:23.024Z,102168.05
2019-05-06T07:36:13.074Z,102169.63
2019-05-06T07:39:04.056Z,102171.66
2019-05-06T07:41:57.731Z,102167.98
2019-05-06T07:45:06.428Z,102170.04
2019-05-06T07:48:05.553Z,102173.91
2019-05-06T07:50:56.862Z,102169.75
2019-05-06T07:53:46.628Z,102175.86
2019-05-06T07:56:36.089Z,102170.38
2019-05-06T07:59:26.571Z,102170.27
2019-05-06T08:02:15.897Z,102173.27
2019-05-06T08:05:07.689Z,102173.57
2019-05-06T08:07:57.351Z,102172.98
2019-05-06T08:10:53.431Z,102175.52
2019-05-06T08:13:43.677Z,102174.51
2019-05-06T08:16:44.457Z,102177.46
2019-05-06T08:19:34.374Z,102170.68
2019-05-06T08:22:45.326Z,102170.09
2019-05-06T08:25:42.489Z,102163.27
2019-05-06T08:28:40.463Z,102169.31
2019-05-06T08:31:34.572Z,102167.34
2019-05-06T08:34:23.493Z,102168.61
2019-05-06T08:37:28.690Z,102167.08
2019-05-06T08:40:18.362Z,102164.72
2019-05-06T08:43:08.123Z,102163.28
2019-05-06T08:46:03.140Z,102168.03
2019-05-06T08:48:55.369Z,102171.89
2019-05-06T08:51:53.046Z,102166.86
2019-05-06T08:54:48.058Z,102171.14
2019-05-06T08:57:41.965Z,102167.02
2019-05-06T09:00:32.351Z,102178.85
2019-05-06T09:03:24.438Z,102168.98
2019-05-06T09:06:26.455Z,102172.92
2019-05-06T09:09:07.499Z,102166.70
2019-05-06T09:11:57.323Z,102167.80
2019-05-06T09:14:47.577Z,102169.72
2019-05-06T09:17:42.010Z,102160.98
2019-05-06T09:20:32.607Z,102173.16
2019-05-06T09:23:22.788Z,102172.80
2019-05-06T09:26:14.067Z,102168.11
2019-05-06T09:29:32.604Z,102167.33
2019-05-06T09:32:35.960Z,102152.72
2019-05-06T09:35:26.767Z,102154.07
2019-05-06T09:38:15.849Z,102157.64
2019-05-06T09:41:05.457Z,102154.96
2019-05-06T09:43:54.332Z,102156.71
2019-05-06T09:46:46.350Z,102149.06
2019-05-06T09:49:36.957Z,102148.47
2019-05-06T09:52:45.281Z,102138.05
2019-05-06T09:55:46.872Z,102149.45
2019-05-06T09:58:42.931Z,102131.75
2019-05-06T10:01:34.523Z,102134.17
2019-05-06T10:04:26.857Z,102137.62
2019-05-06T10:07:16.820Z,102141.05
2019-05-06T10:10:07.118Z,102139.11
2019-05-06T10:12:55.900Z,102137.41
2019-05-06T10:15:45.725Z,102144.41
2019-05-06T10:18:34.738Z,102131.30
2019-05-06T10:21:25.708Z,102129.55
2019-05-06T10:24:14.896Z,102132.31
2019-05-06T10:27:05.971Z,102131.03
2019-05-06T10:30:03.261Z,102130.77
2019-05-06T10:32:55.906Z,102135.46
2019-05-06T10:35:46.378Z,102143.25
2019-05-06T10:39:02.706Z,102150.80
2019-05-06T10:42:17.458Z,102151.12
2019-05-06T10:45:36.158Z,102149.84
2019-05-06T10:48:26.051Z,102141.85
2019-05-06T10:51:25.016Z,102138.27
2019-05-06T10:54:14.237Z,102132.75
2019-05-06T10:57:15.308Z,102125.34
2019-05-06T11:00:06.461Z,102130.39
2019-05-06T11:03:15.317Z,102126.81
2019-05-06T11:06:12.979Z,102124.00
2019-05-06T11:09:07.841Z,102113.16
2019-05-06T11:12:02.682Z,102105.90
2019-05-06T11:14:57.309Z,102099.53
2019-05-06T11:17:54.765Z,102099.88
2019-05-06T11:20:46.231Z,102107.38
2019-05-06T11:23:39.334Z,102102.02
2019-05-06T11:26:30.876Z,102101.53
2019-05-06T11:29:30.453Z,102095.72
2019-05-06T11:32:41.312Z,102101.95
2019-05-06T11:35:52.841Z,102093.89
2019-05-06T11:38:43.103Z,102103.28
2019-05-06T11:41:33.392Z,102097.06
2019-05-06T11:44:23.863Z,102103.91
2019-05-06T11:47:17.807Z,102113.95
2019-05-06T11:50:08.502Z,102119.59
2019-05-06T11:52:57.743Z,102120.69
2019-05-06T11:55:47.386Z,102112.48
2019-05-06T11:58:44.827Z,102122.52
2019-05-06T12:01:47.073Z,102130.29
2019-05-06T12:04:36.588Z,102127.87
2019-05-06T12:07:33.270Z,102133.01
2019-05-06T12:10:22.553Z,102123.05
2019-05-06T12:13:12.756Z,102131.47
2019-05-06T12:16:06.356Z,102131.28
2019-05-06T12:18:55.224Z,102136.09
2019-05-06T12:21:45.970Z,102135.03
2019-05-06T12:24:35.168Z,102135.27
2019-05-06T12:27:46.516Z,102140.82
2019-05-06T12:30:36.192Z,102140.94
2019-05-06T12:33:36.436Z,102127.18
2019-05-06T12:36:26.223Z,102129.44
2019-05-06T12:39:23.083Z,102128.09
2019-05-06T12:42:44.500Z,102128.96
2019-05-06T12:45:42.781Z,102129.38
2019-05-06T12:48:35.311Z,102122.27
2019-05-06T12:51:25.268Z,102125.75
2019-05-06T12:54:14.750Z,102118.94
2019-05-06T12:57:05.663Z,102122.89
2019-05-06T12:59:55.348Z,102118.43
2019-05-06T13:02:47.370Z,102117.09
2019-05-06T13:05:36.951Z,102113.81
2019-05-06T13:08:32.678Z,102106.01
2019-05-06T13:11:18.229Z,102110.20
2019-05-06T13:14:12.539Z,102105.08
2019-05-06T13:17:02.713Z,102105.72
2019-05-06T13:19:52.838Z,102100.23
2019-05-06T13:22:53.613Z,102101.06
2019-05-06T13:25:45.547Z,102096.09
2019-05-06T13:28:37.228Z,102099.19
2019-05-06T13:31:26.584Z,102089.38
2019-05-06T13:34:17.952Z,102080.95
2019-05-06T13:37:12.887Z,102078.66
2019-05-06T13:40:18.774Z,102083.52
2019-05-06T13:43:44.266Z,102073.45
2019-05-06T13:46:37.728Z,102077.26
2019-05-06T13:49:49.231Z,102076.88
2019-05-06T13:52:42.493Z,102080.06
2019-05-06T13:55:43.103Z,102075.73
2019-05-06T13:58:33.752Z,102082.59
2019-05-06T14:01:24.690Z,102082.81
2019-05-06T14:04:14.560Z,102082.69
2019-05-06T14:07:12.945Z,102079.94
2019-05-06T14:10:02.629Z,102076.83
2019-05-06T14:12:54.792Z,102080.92
2019-05-06T14:15:45.467Z,102076.55
2019-05-06T14:18:45.286Z,102073.49
2019-05-06T14:21:35.287Z,102078.44
2019-05-06T14:24:27.645Z,102077.03
2019-05-06T14:27:18.939Z,102072.59
2019-05-06T14:30:15.578Z,102077.52
2019-05-06T14:33:15.108Z,102077.90
2019-05-06T14:36:03.259Z,102081.86
2019-05-06T14:38:53.386Z,102083.61
2019-05-06T14:41:45.516Z,102079.52
2019-05-06T14:44:36.778Z,102079.00
2019-05-06T14:47:32.737Z,102077.11
2019-05-06T14:50:30.946Z,102087.91
2019-05-06T14:53:14.930Z,102093.34
2019-05-06T14:56:14.138Z,102093.86
2019-05-06T14:59:07.279Z,102085.56
2019-05-06T15:01:58.852Z,102094.61
2019-05-06T15:04:48.854Z,102089.38
2019-05-06T15:07:45.058Z,102093.43
2019-05-06T15:10:34.216Z,102092.57
2019-05-06T15:13:26.693Z,102091.30
2019-05-06T15:16:22.037Z,102097.08
2019-05-06T15:19:13.896Z,102098.42
2019-05-06T15:22:03.718Z,102096.11
2019-05-06T15:24:53.972Z,102105.50
2019-05-06T15:27:44.115Z,102104.16
2019-05-06T15:30:42.959Z,102101.48
2019-05-06T15:33:40.939Z,102103.66
2019-05-06T15:36:39.435Z,102101.31
2019-05-06T15:39:29.002Z,102099.78
2019-05-06T15:42:18.709Z,102096.96
2019-05-06T15:45:08.505Z,102105.03
2019-05-06T15:47:57.749Z,102103.80
2019-05-06T15:50:47.342Z,102104.28
2019-05-06T15:53:36.741Z,102103.50
2019-05-06T15:56:27.047Z,102105.73
2019-05-06T15:59:19.325Z,102106.94
2019-05-06T16:02:09.190Z,102102.70
2019-05-06T16:05:11.491Z,102112.52
2019-05-06T16:07:53.128Z,102111.69
2019-05-06T16:10:51.815Z,102113.03
2019-05-06T16:13:37.955Z,102104.18
2019-05-06T16:16:29.443Z,102100.30
2019-05-06T16:19:22.590Z,102095.06
2019-05-06T16:22:11.520Z,102103.22
2019-05-06T16:25:08.344Z,102095.78
2019-05-06T16:27:58.137Z,102100.02
2019-05-06T16:30:49.572Z,102100.95
2019-05-06T16:33:43.570Z,102106.45
2019-05-06T16:36:33.361Z,102104.28
2019-05-06T16:39:24.150Z,102100.46
2019-05-06T16:42:14.602Z,102104.55
2019-05-06T16:45:06.806Z,102100.66
2019-05-06T16:47:54.608Z,102107.44
2019-05-06T16:50:44.257Z,102101.73
2019-05-06T16:53:35.096Z,102103.23
2019-05-06T16:56:47.047Z,102100.20
2019-05-06T16:59:36.855Z,102103.89
2019-05-06T17:02:32.852Z,102099.13
2019-05-06T17:05:43.864Z,102100.64
2019-05-06T17:08:36.479Z,102105.14
2019-05-06T17:11:30.014Z,102106.14
2019-05-06T17:14:14.896Z,102113.91
2019-05-06T17:17:04.738Z,102112.63
2019-05-06T17:19:54.148Z,102114.52
2019-05-06T17:22:43.435Z,102112.34
2019-05-06T17:25:33.945Z,102110.20
2019-05-06T17:28:33.597Z,102122.79
2019-05-06T17:31:49.817Z,102112.31
2019-05-06T17:34:45.831Z,102116.98
2019-05-06T17:37:54.281Z,102114.91
2019-05-06T17:40:43.120Z,102118.22
2019-05-06T17:43:38.583Z,102114.86
2019-05-06T17:46:25.402Z,102124.41
2019-05-06T17:49:21.016Z,102121.47
2019-05-06T17:52:13.591Z,102127.97
2019-05-06T17:55:03.139Z,102129.55
2019-05-06T17:57:52.855Z,102123.90
2019-05-06T18:00:43.013Z,102121.82
2019-05-06T18:03:33.140Z,102124.65
2019-05-06T18:06:23.076Z,102125.19
2019-05-06T18:09:13.625Z,102121.34
2019-05-06T18:12:03.200Z,102121.05
2019-05-06T18:14:53.518Z,102127.92
2019-05-06T18:17:43.460Z,102122.27
2019-05-06T18:20:33.679Z,102125.98
2019-05-06T18:23:24.634Z,102129.23
2019-05-06T18:26:14.771Z,102127.20
2019-05-06T18:29:04.648Z,102121.98
2019-05-06T18:31:54.626Z,102127.94
2019-05-06T18:34:43.790Z,102130.36
2019-05-06T18:37:33.320Z,102130.06
2019-05-06T18:40:23.232Z,102128.97
2019-05-06T18:43:13.041Z,102138.42
2019-05-06T18:46:03.023Z,102135.42
2019-05-06T18:48:52.844Z,102133.83
2019-05-06T18:51:42.900Z,102132.63
2019-05-06T18:54:33.915Z,102137.70
2019-05-06T18:57:22.995Z,102132.95
2019-05-06T19:00:12.293Z,102135.84
2019-05-06T19:03:02.704Z,102139.94
2019-05-06T19:05:53.029Z,102131.63
2019-05-06T19:08:58.424Z,102141.07
2019-05-06T19:11:48.447Z,102143.91
2019-05-06T19:14:37.806Z,102149.47
2019-05-06T19:17:26.617Z,102148.29
2019-05-06T19:20:15.742Z,102153.33
2019-05-06T19:23:05.634Z,102153.00
2019-05-06T19:25:55.329Z,102165.14
2019-05-06T19:28:49.154Z,102164.41
2019-05-06T19:31:38.379Z,102167.67
2019-05-06T19:34:27.591Z,102160.66
2019-05-06T19:37:16.595Z,102168.83
2019-05-06T19:40:05.802Z,102166.31
2019-05-06T19:42:54.562Z,102170.91
2019-05-06T19:45:43.849Z,102169.72
2019-05-06T19:48:33.428Z,102181.89
2019-05-06T19:51:23.015Z,102181.56
2019-05-06T19:54:12.639Z,102183.91
2019-05-06T19:57:04.327Z,102184.55
2019-05-06T19:59:53.711Z,102181.54
2019-05-06T20:02:43.030Z,102179.43
2019-05-06T20:05:41.688Z,102188.03
2019-05-06T20:08:42.111Z,102189.03
2019-05-06T20:11:39.139Z,102187.41
2019-05-06T20:14:28.790Z,102188.88
2019-05-06T20:17:18.319Z,102183.69
2019-05-06T20:20:07.225Z,102185.59
2019-05-06T20:22:56.534Z,102179.91
2019-05-06T20:25:45.375Z,102176.00
2019-05-06T20:28:35.316Z,102181.05
2019-05-06T20:31:24.902Z,102182.47
2019-05-06T20:34:15.162Z,102180.80
2019-05-06T20:37:04.423Z,102183.64
2019-05-06T20:39:53.789Z,102186.83
2019-05-06T20:42:42.770Z,102181.15
2019-05-06T20:45:35.126Z,102177.70
2019-05-06T20:48:23.657Z,102179.16
2019-05-06T20:51:12.642Z,102185.89
2019-05-06T20:54:02.583Z,102181.57
2019-05-06T20:56:53.088Z,102184.77
2019-05-06T20:59:42.247Z,102179.98
2019-05-06T21:02:32.613Z,102181.91
2019-05-06T21:05:23.513Z,102179.32
2019-05-06T21:08:13.211Z,102175.41
2019-05-06T21:11:04.070Z,102189.30
2019-05-06T21:16:25.720Z,102183.58
2019-05-06T21:19:14.440Z,102185.15
2019-05-06T21:22:04.042Z,102190.52
2019-05-06T21:24:53.141Z,102181.78
2019-05-06T21:27:42.452Z,102180.09
2019-05-06T21:30:32.460Z,102183.30
2019-05-06T21:33:22.240Z,102182.09
2019-05-06T21:36:30.754Z,102178.60
2019-05-06T21:39:22.265Z,102184.94
2019-05-06T21:42:12.191Z,102179.29
2019-05-06T21:45:03.265Z,102182.47
2019-05-06T21:47:53.172Z,102181.67
2019-05-06T21:50:42.858Z,102182.69
2019-05-06T21:53:32.930Z,102188.05
2019-05-06T21:56:22.630Z,102180.13
2019-05-06T21:59:13.026Z,102185.06
2019-05-06T22:02:04.461Z,102182.94
2019-05-06T22:04:55.617Z,102183.88
2019-05-06T22:07:45.166Z,102184.81
2019-05-06T22:10:34.729Z,102177.78
2019-05-06T22:13:25.551Z,102176.95
2019-05-06T22:16:14.799Z,102173.89
2019-05-06T22:19:03.909Z,102176.59
2019-05-06T22:22:04.224Z,102173.09
2019-05-06T22:24:57.615Z,102174.47
2019-05-06T22:27:44.843Z,102170.47
2019-05-06T22:30:34.451Z,102166.51
2019-05-06T22:33:23.142Z,102165.17
2019-05-06T22:36:13.180Z,102168.77
2019-05-06T22:39:03.171Z,102170.14
2019-05-06T22:41:52.719Z,102167.48
2019-05-06T22:44:43.043Z,102168.38
2019-05-06T22:47:32.602Z,102165.75
2019-05-06T22:50:22.598Z,102167.52
2019-05-06T22:53:13.077Z,102160.85
2019-05-06T22:56:05.557Z,102161.78
2019-05-06T22:58:55.354Z,102163.12
2019-05-06T23:02:04.506Z,102160.89
2019-05-06T23:04:57.022Z,102161.78
2019-05-06T23:07:46.779Z,102160.89
2019-05-06T23:10:35.940Z,102156.02
2019-05-06T23:13:26.308Z,102153.36
2019-05-06T23:16:16.920Z,102159.59
2019-05-06T23:19:06.990Z,102156.92
2019-05-06T23:21:56.584Z,102156.52
2019-05-06T23:24:45.473Z,102163.58
2019-05-06T23:27:35.162Z,102160.05
2019-05-06T23:30:25.276Z,102156.09
2019-05-06T23:33:14.738Z,102157.86
2019-05-06T23:36:07.479Z,102153.43
2019-05-06T23:40:00.477Z,102160.09
2019-05-06T23:43:44.743Z,102156.99
2019-05-06T23:47:29.617Z,102156.09
2019-05-06T23:51:14.163Z,102152.53
2019-05-06T23:54:58.460Z,102147.24
2019-05-06T23:57:46.033Z,102152.13
